Berit — ZDHX2 — position and weather

sailwx.info

Track history (hours):
 
Tides and Currents Weather Stations Pressure Air Temp Water Temp Dewpoint Dewpoint Depression Visibility Wind Speed Wind Dir Waves Ship Positions

Berit

Last reported at 2015-Jul-05 04:30 UTC. Time now 2015-Jul-05 06:09 UTC.
Position N 51°33' E 002°20'.

Length 83 m; draft 5.1 m.

Type: Cargo ship. MMSI: 236386000.

Date/timePositionNaut miles runAvg speedWind from/ knotsBaromVisibWave heightAir tempDewpointWater temp
2015-Jul-05 04:30N 51°33' E 002°20'1111.5
2015-Jul-05 03:33N 51°24' E 002°11'1111.6
2015-Jul-05 02:33N 51°14' E 002°02'1212.4
2015-Jul-05 01:33N 51°06' E 001°46'1313.0
2015-Jul-05 00:33N 50°57' E 001°32'1211.7
2015-Jul-04 23:33N 50°46' E 001°24'2210.1
2015-Jul-04 21:25N 50°30' E 001°02'176 9.8
2015-Jul-04 03:32N 49°37' W 003°19'8 8.2
2015-Jul-04 02:33N 49°33' W 003°30'8 8.1
2015-Jul-04 01:33N 49°29' W 003°41'8 8.0
2015-Jul-04 00:32N 49°25' W 003°52'168 9.1
2015-Jul-03 06:06N 47°20' W 006°41'  
Track history (hours):
 
Tides and Currents Weather Stations Pressure Air Temp Water Temp Dewpoint Dewpoint Depression Visibility Wind Speed Wind Dir Waves Ship Positions

Berit

Last reported at 2015-Jul-05 04:30 UTC. Time now 2015-Jul-05 06:09 UTC.
Position N 51°33' E 002°20'.

Length 83 m; draft 5.1 m.

Type: Cargo ship. MMSI: 236386000.

Date/timePositionNaut miles runAvg speedWind from/ knotsBaromVisibWave heightAir tempDewpointWater temp
2015-Jul-05 04:30N 51°33' E 002°20'1111.5
2015-Jul-05 03:33N 51°24' E 002°11'1111.6
2015-Jul-05 02:33N 51°14' E 002°02'1212.4
2015-Jul-05 01:33N 51°06' E 001°46'1313.0
2015-Jul-05 00:33N 50°57' E 001°32'1211.7
2015-Jul-04 23:33N 50°46' E 001°24'2210.1
2015-Jul-04 21:25N 50°30' E 001°02'176 9.8
2015-Jul-04 03:32N 49°37' W 003°19'8 8.2
2015-Jul-04 02:33N 49°33' W 003°30'8 8.1
2015-Jul-04 01:33N 49°29' W 003°41'8 8.0
2015-Jul-04 00:32N 49°25' W 003°52'168 9.1
2015-Jul-03 06:06N 47°20' W 006°41'  

Dump ship's entire track history